createdAt,value
2022-08-28T00:02:24.200Z,15.71
2022-08-28T00:06:27.289Z,15.53
2022-08-28T00:10:30.386Z,15.49
2022-08-28T00:14:32.918Z,15.52
2022-08-28T00:18:35.209Z,15.52
2022-08-28T00:22:38.676Z,15.44
2022-08-28T00:26:59.583Z,15.42
2022-08-28T00:31:01.887Z,15.37
2022-08-28T00:35:04.164Z,15.34
2022-08-28T00:39:07.575Z,15.24
2022-08-28T00:43:11.673Z,15.33
2022-08-28T00:47:14.111Z,15.33
2022-08-28T00:51:37.257Z,15.27
2022-08-28T00:55:39.504Z,15.32
2022-08-28T00:59:42.639Z,15.24
2022-08-28T01:03:45.306Z,15.04
2022-08-28T01:07:48.486Z,15.07
2022-08-28T01:11:54.455Z,14.94
2022-08-28T01:15:58.387Z,14.89
2022-08-28T01:20:07.217Z,14.98
2022-08-28T01:24:14.891Z,14.83
2022-08-28T01:28:18.786Z,14.67
2022-08-28T01:32:40.880Z,14.76
2022-08-28T01:36:43.242Z,14.87
2022-08-28T01:40:48.284Z,14.77
2022-08-28T01:44:51.685Z,14.70
2022-08-28T01:48:53.786Z,14.71
2022-08-28T01:52:55.984Z,14.75
2022-08-28T01:56:58.078Z,14.60
2022-08-28T02:01:00.354Z,14.54
2022-08-28T02:05:02.466Z,14.55
2022-08-28T02:09:07.626Z,14.46
2022-08-28T02:13:16.765Z,14.46
2022-08-28T02:17:19.844Z,14.49
2022-08-28T02:21:21.861Z,14.42
2022-08-28T02:25:24.963Z,14.36
2022-08-28T02:29:27.330Z,14.22
2022-08-28T02:33:30.704Z,14.23
2022-08-28T02:37:33.785Z,13.98
2022-08-28T02:41:35.930Z,14.03
2022-08-28T02:45:37.874Z,13.87
2022-08-28T02:49:40.126Z,14.04
2022-08-28T02:53:43.087Z,13.96
2022-08-28T02:57:46.471Z,13.90
2022-08-28T03:01:48.729Z,13.86
2022-08-28T03:05:51.046Z,13.85
2022-08-28T03:09:53.015Z,13.79
2022-08-28T03:13:55.662Z,14.05
2022-08-28T03:17:57.858Z,13.98
2022-08-28T03:22:00.110Z,13.90
2022-08-28T03:26:09.110Z,13.81
2022-08-28T03:30:11.638Z,13.75
2022-08-28T03:34:13.702Z,13.68
2022-08-28T03:38:17.037Z,13.54
2022-08-28T03:42:19.013Z,13.61
2022-08-28T03:46:24.008Z,13.62
2022-08-28T03:50:26.187Z,13.61
2022-08-28T03:54:31.741Z,13.63
2022-08-28T03:58:34.002Z,13.66
2022-08-28T04:02:36.298Z,13.72
2022-08-28T04:06:39.410Z,13.80
2022-08-28T04:10:44.407Z,13.82
2022-08-28T04:14:46.504Z,13.89
2022-08-28T04:18:49.725Z,13.94
2022-08-28T04:22:55.025Z,14.02
2022-08-28T04:26:58.131Z,14.14
2022-08-28T04:31:00.156Z,14.32
2022-08-28T04:35:04.479Z,14.46
2022-08-28T04:39:08.774Z,14.47
2022-08-28T04:43:11.322Z,14.53
2022-08-28T04:47:13.385Z,14.67
2022-08-28T04:51:15.839Z,14.77
2022-08-28T04:55:18.235Z,14.93
2022-08-28T04:59:30.225Z,15.04
2022-08-28T05:03:32.977Z,15.22
2022-08-28T05:07:35.206Z,15.44
2022-08-28T05:11:37.230Z,15.62
2022-08-28T05:15:41.386Z,15.78
2022-08-28T05:19:43.923Z,15.98
2022-08-28T05:23:47.868Z,16.17
2022-08-28T05:27:51.417Z,16.41
2022-08-28T05:31:53.870Z,16.62
2022-08-28T05:35:55.861Z,16.80
2022-08-28T05:39:58.217Z,17.06
2022-08-28T05:44:04.158Z,17.34
2022-08-28T05:48:06.862Z,17.62
2022-08-28T05:52:09.017Z,17.97
2022-08-28T05:56:15.002Z,18.36
2022-08-28T06:00:18.835Z,18.50
2022-08-28T06:04:25.914Z,18.78
2022-08-28T06:08:30.008Z,18.93
2022-08-28T06:12:32.263Z,19.08
2022-08-28T06:16:36.692Z,19.32
2022-08-28T06:20:43.523Z,19.58
2022-08-28T06:24:45.677Z,19.82
2022-08-28T06:28:47.977Z,20.14
2022-08-28T06:32:50.044Z,20.56
2022-08-28T06:36:55.806Z,20.69
2022-08-28T06:40:58.125Z,20.87
2022-08-28T06:45:00.350Z,21.10
2022-08-28T06:49:04.539Z,21.30
2022-08-28T06:53:09.408Z,21.52
2022-08-28T06:57:11.468Z,21.60
2022-08-28T07:01:18.967Z,21.85
2022-08-28T07:05:21.423Z,22.08
2022-08-28T07:09:24.508Z,22.24
2022-08-28T07:13:29.165Z,22.57
2022-08-28T07:17:34.687Z,22.67
2022-08-28T07:21:39.436Z,22.95
2022-08-28T07:25:42.174Z,23.08
2022-08-28T07:29:44.302Z,23.23
2022-08-28T07:33:46.825Z,23.60
2022-08-28T07:37:52.863Z,23.89
2022-08-28T07:41:55.236Z,24.02
2022-08-28T07:46:02.659Z,24.27
2022-08-28T07:50:05.398Z,24.51
2022-08-28T07:54:08.649Z,24.84
2022-08-28T07:58:19.867Z,25.12
2022-08-28T08:02:22.235Z,25.36
2022-08-28T08:06:28.110Z,25.62
2022-08-28T08:10:36.765Z,25.84
2022-08-28T08:14:40.466Z,25.93
2022-08-28T08:18:42.556Z,26.20
2022-08-28T08:22:45.001Z,26.38
2022-08-28T08:26:59.410Z,26.63
2022-08-28T08:31:10.347Z,26.85
2022-08-28T08:35:13.005Z,27.05
2022-08-28T08:39:15.151Z,27.24
2022-08-28T08:43:18.618Z,27.27
2022-08-28T08:47:32.767Z,27.51
2022-08-28T08:51:42.205Z,27.64
2022-08-28T08:55:50.625Z,27.70
2022-08-28T08:59:52.598Z,27.86
2022-08-28T09:04:16.447Z,27.78
2022-08-28T09:08:40.764Z,27.88
2022-08-28T09:12:49.686Z,27.93
2022-08-28T09:16:52.525Z,28.23
2022-08-28T09:20:58.457Z,28.20
2022-08-28T09:25:00.707Z,28.48
2022-08-28T09:29:07.513Z,28.50
2022-08-28T09:33:09.963Z,28.63
2022-08-28T09:37:26.049Z,28.71
2022-08-28T09:41:46.783Z,28.74
2022-08-28T09:45:53.860Z,28.69
2022-08-28T09:49:55.911Z,28.89
2022-08-28T09:54:08.270Z,28.88
2022-08-28T09:58:10.668Z,28.96
2022-08-28T10:02:32.766Z,29.09
2022-08-28T10:06:37.170Z,29.05
2022-08-28T10:10:48.194Z,29.04
2022-08-28T10:14:59.180Z,29.09
2022-08-28T10:19:17.191Z,29.22
2022-08-28T10:23:28.024Z,29.29
2022-08-28T10:27:30.264Z,29.23
2022-08-28T10:32:20.800Z,29.46
2022-08-28T10:36:34.212Z,29.62
2022-08-28T10:40:49.116Z,29.72
2022-08-28T10:45:30.488Z,29.69
2022-08-28T10:55:09.938Z,29.96
2022-08-28T10:59:12.433Z,30.02
2022-08-28T11:03:33.920Z,30.11
2022-08-28T11:07:51.043Z,30.31
2022-08-28T11:12:01.617Z,30.19
2022-08-28T11:16:31.411Z,30.28
2022-08-28T11:20:34.879Z,30.51
2022-08-28T11:24:41.477Z,30.66
2022-08-28T11:28:47.623Z,30.92
2022-08-28T11:32:52.624Z,30.77
2022-08-28T11:37:01.333Z,30.85
2022-08-28T11:41:11.025Z,30.74
2022-08-28T11:45:47.753Z,30.92
2022-08-28T11:49:49.924Z,30.53
2022-08-28T11:54:03.867Z,30.93
2022-08-28T11:58:21.654Z,30.91
2022-08-28T12:02:49.318Z,30.60
2022-08-28T12:07:19.876Z,30.34
2022-08-28T12:11:40.334Z,30.48
2022-08-28T12:15:43.090Z,30.28
2022-08-28T12:20:10.135Z,30.29
2022-08-28T12:24:23.315Z,30.39
2022-08-28T12:28:31.425Z,30.44
2022-08-28T12:32:42.343Z,30.94
2022-08-28T12:36:50.166Z,30.96
2022-08-28T12:40:54.937Z,31.04
2022-08-28T12:45:06.600Z,30.36
2022-08-28T12:49:31.076Z,30.03
2022-08-28T12:53:41.286Z,30.40
2022-08-28T12:57:48.097Z,30.95
2022-08-28T13:01:51.343Z,31.16
2022-08-28T13:06:09.390Z,31.01
2022-08-28T13:10:24.754Z,31.00
2022-08-28T13:14:56.098Z,31.23
2022-08-28T13:19:04.293Z,31.47
2022-08-28T13:23:06.448Z,31.36
2022-08-28T13:27:19.922Z,31.52
2022-08-28T13:31:32.320Z,31.47
2022-08-28T13:35:38.027Z,31.40
2022-08-28T13:39:40.027Z,31.34
2022-08-28T13:43:45.965Z,31.38
2022-08-28T13:47:48.067Z,31.69
2022-08-28T13:51:50.759Z,31.77
2022-08-28T13:55:53.375Z,31.51
2022-08-28T13:59:55.854Z,31.79
2022-08-28T14:03:58.907Z,31.73
2022-08-28T14:08:01.196Z,31.40
2022-08-28T14:12:04.655Z,31.71
2022-08-28T14:16:08.065Z,31.56
2022-08-28T14:20:11.347Z,31.70
2022-08-28T14:24:13.910Z,31.74
2022-08-28T14:28:17.607Z,31.50
2022-08-28T14:32:20.282Z,31.62
2022-08-28T14:36:25.418Z,31.53
2022-08-28T14:40:27.780Z,31.46
2022-08-28T14:44:29.990Z,31.62
2022-08-28T14:48:32.705Z,31.65
2022-08-28T14:52:34.792Z,31.66
2022-08-28T14:56:37.264Z,31.71
2022-08-28T15:00:48.117Z,31.71
2022-08-28T15:04:50.417Z,31.57
2022-08-28T15:08:54.318Z,31.70
2022-08-28T15:12:56.735Z,31.32
2022-08-28T15:17:04.170Z,30.62
2022-08-28T15:21:08.782Z,29.95
2022-08-28T15:25:10.882Z,29.01
2022-08-28T15:29:13.390Z,28.56
2022-08-28T15:33:15.599Z,28.45
2022-08-28T15:37:18.170Z,28.18
2022-08-28T15:41:24.532Z,28.92
2022-08-28T15:45:27.228Z,28.63
2022-08-28T15:49:32.293Z,29.28
2022-08-28T15:53:38.407Z,30.11
2022-08-28T15:57:40.495Z,30.84
2022-08-28T16:01:42.818Z,29.98
2022-08-28T16:05:44.895Z,30.20
2022-08-28T16:09:47.272Z,30.35
2022-08-28T16:13:50.836Z,29.52
2022-08-28T16:17:53.097Z,28.82
2022-08-28T16:21:55.155Z,28.28
2022-08-28T16:25:57.584Z,27.89
2022-08-28T16:29:59.792Z,27.37
2022-08-28T16:34:05.317Z,27.04
2022-08-28T16:38:08.583Z,26.72
2022-08-28T16:42:11.692Z,26.46
2022-08-28T16:46:18.173Z,26.32
2022-08-28T16:50:20.593Z,26.04
2022-08-28T16:54:23.675Z,25.83
2022-08-28T16:58:25.845Z,25.53
2022-08-28T17:02:28.257Z,25.39
2022-08-28T17:06:32.091Z,25.12
2022-08-28T17:10:35.615Z,25.04
2022-08-28T17:14:38.240Z,24.84
2022-08-28T17:18:48.320Z,24.68
2022-08-28T17:27:46.607Z,24.10
2022-08-28T17:31:48.849Z,24.01
2022-08-28T17:35:52.156Z,24.05
2022-08-28T17:39:54.593Z,23.82
2022-08-28T17:43:56.974Z,24.45
2022-08-28T17:47:59.196Z,24.78
2022-08-28T17:52:02.814Z,24.72
2022-08-28T17:56:06.604Z,24.48
2022-08-28T18:00:11.994Z,23.98
2022-08-28T18:04:23.017Z,23.60
2022-08-28T18:08:27.058Z,23.21
2022-08-28T18:12:30.951Z,23.16
2022-08-28T18:16:34.818Z,23.15
2022-08-28T18:20:37.043Z,22.86
2022-08-28T18:24:42.378Z,22.68
2022-08-28T18:28:49.263Z,22.61
2022-08-28T18:32:53.720Z,22.58
2022-08-28T18:37:01.783Z,22.55
2022-08-28T18:41:05.623Z,22.36
2022-08-28T18:45:08.712Z,22.45
2022-08-28T18:49:13.035Z,22.41
2022-08-28T18:53:18.974Z,22.36
2022-08-28T18:57:21.915Z,22.49
2022-08-28T19:01:28.722Z,22.64
2022-08-28T19:05:33.518Z,22.54
2022-08-28T19:09:36.021Z,22.52
2022-08-28T19:13:39.666Z,22.30
2022-08-28T19:17:41.824Z,22.10
2022-08-28T19:21:45.958Z,21.67
2022-08-28T19:25:49.055Z,21.54
2022-08-28T19:29:51.392Z,21.64
2022-08-28T19:33:54.325Z,21.79
2022-08-28T19:37:56.642Z,21.64
2022-08-28T19:41:58.807Z,21.58
2022-08-28T19:46:01.147Z,21.63
2022-08-28T19:50:05.524Z,21.56
2022-08-28T19:54:11.244Z,21.51
2022-08-28T19:58:13.575Z,21.60
2022-08-28T20:02:16.233Z,21.51
2022-08-28T20:06:18.453Z,21.51
2022-08-28T20:10:21.520Z,21.56
2022-08-28T20:14:23.656Z,21.58
2022-08-28T20:18:26.305Z,21.50
2022-08-28T20:22:28.694Z,21.39
2022-08-28T20:26:31.542Z,21.40
2022-08-28T20:30:33.542Z,21.26
2022-08-28T20:34:35.831Z,21.33
2022-08-28T20:38:39.511Z,21.30
2022-08-28T20:42:42.995Z,21.23
2022-08-28T20:46:51.129Z,20.97
2022-08-28T20:50:55.759Z,20.97
2022-08-28T20:54:58.233Z,21.04
2022-08-28T20:59:00.468Z,21.01
2022-08-28T21:03:02.537Z,20.92
2022-08-28T21:07:04.780Z,20.98
2022-08-28T21:11:06.775Z,20.95
2022-08-28T21:15:12.618Z,21.00
2022-08-28T21:19:16.735Z,20.95
2022-08-28T21:23:19.809Z,20.92
2022-08-28T21:27:22.007Z,20.88
2022-08-28T21:31:24.547Z,20.71
2022-08-28T21:35:26.585Z,20.77
2022-08-28T21:39:28.770Z,20.78
2022-08-28T21:43:31.490Z,20.51
2022-08-28T21:47:34.171Z,20.49
2022-08-28T21:51:36.241Z,20.56
2022-08-28T21:55:38.573Z,20.53
2022-08-28T21:59:40.787Z,20.51
2022-08-28T22:03:44.086Z,20.60
2022-08-28T22:07:46.088Z,20.64
2022-08-28T22:11:49.139Z,20.65
2022-08-28T22:15:51.619Z,20.67
2022-08-28T22:19:53.834Z,20.68
2022-08-28T22:23:55.865Z,20.49
2022-08-28T22:27:58.209Z,20.48
2022-08-28T22:32:00.268Z,20.36
2022-08-28T22:36:03.481Z,20.24
2022-08-28T22:40:09.362Z,20.34
2022-08-28T22:44:15.367Z,20.09
2022-08-28T22:48:17.991Z,20.14
2022-08-28T22:52:20.275Z,20.21
2022-08-28T22:56:22.489Z,20.26
2022-08-28T23:00:27.582Z,20.27
2022-08-28T23:04:30.703Z,20.17
2022-08-28T23:08:34.114Z,20.07
2022-08-28T23:12:36.998Z,19.99
2022-08-28T23:16:39.629Z,19.71
2022-08-28T23:20:42.762Z,19.67
2022-08-28T23:24:47.315Z,19.74
2022-08-28T23:28:49.565Z,19.88
2022-08-28T23:32:52.971Z,19.71
2022-08-28T23:36:55.146Z,19.63
2022-08-28T23:40:57.537Z,19.52
2022-08-28T23:45:00.109Z,19.59
2022-08-28T23:49:04.551Z,19.73
2022-08-28T23:53:07.026Z,19.79
2022-08-28T23:57:17.789Z,19.64
